Time;durP1;ratioP1;P1;durP2;ratioP2;P2;SDS_P1;SDS_P2;PMS_P1;PMS_P2;Temp;Humidity;BMP_temperature;BMP_pressure;BME280_temperature;BME280_humidity;BME280_pressure;Samples;Min_cycle;Max_cycle;Signal;HPM_P1;HPM_P2
2019/07/25 00:02:08;;;;;;;3.47;3.09;;;;;;;23.37;57.89;100435.69;;;;-53
2019/07/25 00:05:07;;;;;;;3.42;3.12;;;;;;;23.37;57.90;100438.78;;;;-53
2019/07/25 00:08:07;;;;;;;3.56;3.18;;;;;;;23.37;57.84;100439.20;;;;-53
2019/07/25 00:11:07;;;;;;;3.33;3.02;;;;;;;23.36;57.84;100437.92;;;;-53
2019/07/25 00:14:07;;;;;;;3.56;3.26;;;;;;;23.36;57.88;100443.91;;;;-53
2019/07/25 00:17:07;;;;;;;3.39;3.09;;;;;;;23.36;57.85;100443.38;;;;-53
2019/07/25 00:20:07;;;;;;;3.72;3.31;;;;;;;23.36;57.81;100442.97;;;;-54
2019/07/25 00:23:07;;;;;;;3.20;2.90;;;;;;;23.36;57.82;100444.59;;;;-53
2019/07/25 00:26:07;;;;;;;3.27;2.97;;;;;;;23.36;57.81;100439.00;;;;-53
2019/07/25 00:29:07;;;;;;;3.23;2.93;;;;;;;23.35;57.78;100440.14;;;;-53
2019/07/25 00:32:07;;;;;;;3.17;2.87;;;;;;;23.34;57.80;100439.98;;;;-53
2019/07/25 00:35:07;;;;;;;3.29;2.99;;;;;;;23.35;57.79;100443.35;;;;-53
2019/07/25 00:38:07;;;;;;;3.37;3.07;;;;;;;23.34;57.80;100442.41;;;;-53
2019/07/25 00:41:07;;;;;;;3.13;2.82;;;;;;;23.35;57.74;100447.90;;;;-53
2019/07/25 00:44:07;;;;;;;3.55;2.98;;;;;;;23.34;57.75;100447.80;;;;-53
2019/07/25 00:47:07;;;;;;;3.18;2.88;;;;;;;23.33;57.74;100451.01;;;;-53
2019/07/25 00:50:07;;;;;;;3.30;3.00;;;;;;;23.34;57.70;100452.59;;;;-53
2019/07/25 00:53:07;;;;;;;5.44;2.86;;;;;;;23.34;57.70;100455.96;;;;-53
2019/07/25 00:56:07;;;;;;;3.91;3.03;;;;;;;23.33;57.75;100453.41;;;;-53
2019/07/25 00:59:07;;;;;;;3.38;3.08;;;;;;;23.33;57.67;100450.98;;;;-53
2019/07/25 01:02:07;;;;;;;4.62;2.84;;;;;;;23.33;57.67;100446.86;;;;-53
2019/07/25 01:05:07;;;;;;;3.56;2.93;;;;;;;23.33;57.67;100445.98;;;;-53
2019/07/25 01:08:07;;;;;;;3.95;2.96;;;;;;;23.33;57.67;100450.20;;;;-53
2019/07/25 01:11:07;;;;;;;3.16;2.86;;;;;;;23.32;57.67;100450.14;;;;-53
2019/07/25 01:14:07;;;;;;;3.38;3.04;;;;;;;23.33;57.64;100451.66;;;;-53
2019/07/25 01:17:07;;;;;;;3.18;2.89;;;;;;;23.32;57.64;100449.09;;;;-53
2019/07/25 01:20:07;;;;;;;4.19;2.98;;;;;;;23.31;57.68;100450.75;;;;-54
2019/07/25 01:23:07;;;;;;;3.19;2.89;;;;;;;23.32;57.68;100454.55;;;;-53
2019/07/25 01:26:07;;;;;;;3.01;2.81;;;;;;;23.31;57.66;100455.30;;;;-53
2019/07/25 01:29:07;;;;;;;3.25;2.98;;;;;;;23.31;57.65;100457.52;;;;-54
2019/07/25 01:32:07;;;;;;;3.26;2.96;;;;;;;23.31;57.66;100461.97;;;;-53
2019/07/25 01:35:07;;;;;;;3.27;2.88;;;;;;;23.31;57.66;100464.64;;;;-54
2019/07/25 01:38:07;;;;;;;3.33;2.99;;;;;;;23.31;57.65;100465.17;;;;-53
2019/07/25 01:41:07;;;;;;;3.13;2.81;;;;;;;23.31;57.66;100467.87;;;;-53
2019/07/25 01:44:07;;;;;;;3.17;2.85;;;;;;;23.31;57.66;100466.33;;;;-53
2019/07/25 01:47:07;;;;;;;3.44;3.07;;;;;;;23.30;57.67;100459.34;;;;-53
2019/07/25 01:50:07;;;;;;;3.69;2.86;;;;;;;23.30;57.70;100458.98;;;;-53
2019/07/25 01:53:07;;;;;;;3.22;2.81;;;;;;;23.30;57.68;100457.46;;;;-53
2019/07/25 01:56:07;;;;;;;3.68;3.34;;;;;;;23.29;57.67;100455.44;;;;-53
2019/07/25 01:59:07;;;;;;;3.27;2.97;;;;;;;23.30;57.66;100454.00;;;;-53
2019/07/25 02:02:07;;;;;;;3.17;2.90;;;;;;;23.30;57.63;100454.00;;;;-53
2019/07/25 02:05:07;;;;;;;3.15;2.95;;;;;;;23.29;57.65;100451.61;;;;-53
2019/07/25 02:08:07;;;;;;;3.25;2.83;;;;;;;23.29;57.63;100455.24;;;;-53
2019/07/25 02:11:07;;;;;;;3.21;2.87;;;;;;;23.28;57.65;100452.05;;;;-53
2019/07/25 02:14:07;;;;;;;3.40;3.10;;;;;;;23.30;57.62;100454.16;;;;-53
2019/07/25 02:17:07;;;;;;;3.11;2.82;;;;;;;23.29;57.63;100450.19;;;;-53
2019/07/25 02:20:07;;;;;;;3.35;3.05;;;;;;;23.28;57.63;100451.10;;;;-53
2019/07/25 02:23:07;;;;;;;3.23;3.00;;;;;;;23.28;57.61;100455.82;;;;-53
2019/07/25 02:26:07;;;;;;;3.33;3.03;;;;;;;23.28;57.60;100453.19;;;;-53
2019/07/25 02:29:07;;;;;;;3.32;3.02;;;;;;;23.28;57.60;100457.00;;;;-53
2019/07/25 02:32:07;;;;;;;3.41;3.11;;;;;;;23.28;57.59;100461.48;;;;-53
2019/07/25 02:35:07;;;;;;;3.15;2.85;;;;;;;23.28;57.59;100462.80;;;;-53
2019/07/25 02:38:07;;;;;;;3.21;3.01;;;;;;;23.28;57.58;100466.27;;;;-54
2019/07/25 02:41:07;;;;;;;3.05;2.77;;;;;;;23.28;57.56;100467.18;;;;-53
2019/07/25 02:44:07;;;;;;;3.37;3.09;;;;;;;23.28;57.56;100467.86;;;;-53
2019/07/25 02:47:07;;;;;;;3.08;2.86;;;;;;;23.27;57.56;100469.52;;;;-53
2019/07/25 02:50:07;;;;;;;3.78;2.95;;;;;;;23.27;57.56;100463.11;;;;-53
2019/07/25 02:53:07;;;;;;;3.16;2.92;;;;;;;23.27;57.61;100467.73;;;;-53
2019/07/25 02:56:07;;;;;;;3.30;3.00;;;;;;;23.27;57.56;100466.91;;;;-53
2019/07/25 02:59:14;;;;;;;3.30;3.00;;;;;;;23.27;57.55;100472.38;;;;-53
2019/07/25 03:02:07;;;;;;;3.35;3.05;;;;;;;23.27;57.55;100474.13;;;;-53
2019/07/25 03:05:07;;;;;;;3.41;3.11;;;;;;;23.26;57.54;100476.66;;;;-53
2019/07/25 03:08:07;;;;;;;3.25;3.00;;;;;;;23.26;57.54;100474.47;;;;-53
2019/07/25 03:11:07;;;;;;;3.25;2.95;;;;;;;23.26;57.54;100476.16;;;;-53
2019/07/25 03:14:07;;;;;;;3.49;3.21;;;;;;;23.26;57.52;100476.39;;;;-54
2019/07/25 03:17:07;;;;;;;3.63;3.33;;;;;;;23.26;57.53;100477.57;;;;-53
2019/07/25 03:20:07;;;;;;;3.37;3.09;;;;;;;23.26;57.51;100477.67;;;;-53
2019/07/25 03:23:07;;;;;;;3.43;3.13;;;;;;;23.25;57.56;100471.06;;;;-53
2019/07/25 03:26:07;;;;;;;3.48;3.18;;;;;;;23.25;57.52;100474.95;;;;-53
2019/07/25 03:29:07;;;;;;;3.39;3.09;;;;;;;23.25;57.51;100479.39;;;;-53
2019/07/25 03:32:07;;;;;;;3.59;3.29;;;;;;;23.25;57.51;100484.05;;;;-53
2019/07/25 03:35:07;;;;;;;3.39;3.11;;;;;;;23.25;57.50;100480.73;;;;-53
2019/07/25 03:38:07;;;;;;;3.53;3.11;;;;;;;23.24;57.49;100485.36;;;;-53
2019/07/25 03:41:07;;;;;;;3.53;3.23;;;;;;;23.24;57.50;100487.05;;;;-53
2019/07/25 03:44:07;;;;;;;3.60;3.30;;;;;;;23.24;57.47;100484.76;;;;-53
2019/07/25 03:47:07;;;;;;;3.85;3.55;;;;;;;23.24;57.47;100489.64;;;;-53
2019/07/25 03:50:07;;;;;;;3.35;3.15;;;;;;;23.24;57.43;100492.17;;;;-53
2019/07/25 03:53:07;;;;;;;3.57;3.27;;;;;;;23.23;57.49;100493.31;;;;-53
2019/07/25 03:56:07;;;;;;;3.56;3.26;;;;;;;23.24;57.47;100494.36;;;;-53
2019/07/25 03:59:07;;;;;;;3.58;3.29;;;;;;;23.24;57.44;100496.82;;;;-53
2019/07/25 04:02:07;;;;;;;3.61;3.31;;;;;;;23.23;57.43;100495.61;;;;-53
2019/07/25 04:05:07;;;;;;;3.46;3.14;;;;;;;23.23;57.45;100493.92;;;;-53
2019/07/25 04:08:07;;;;;;;3.67;3.37;;;;;;;23.24;57.45;100497.91;;;;-53
2019/07/25 04:11:07;;;;;;;3.65;3.35;;;;;;;23.23;57.46;100500.73;;;;-53
2019/07/25 04:14:07;;;;;;;3.77;3.47;;;;;;;23.23;57.46;100504.71;;;;-53
2019/07/25 04:17:07;;;;;;;3.74;3.44;;;;;;;23.23;57.46;100506.23;;;;-53
2019/07/25 04:20:07;;;;;;;3.73;3.40;;;;;;;23.23;57.44;100508.99;;;;-53
2019/07/25 04:23:07;;;;;;;5.74;5.11;;;;;;;23.21;58.08;100504.38;;;;-53
2019/07/25 04:26:07;;;;;;;8.15;6.11;;;;;;;23.19;58.06;100506.11;;;;-52
2019/07/25 04:29:07;;;;;;;6.82;6.15;;;;;;;23.18;58.08;100506.75;;;;-52
2019/07/25 04:32:07;;;;;;;6.87;6.17;;;;;;;23.18;58.03;100513.56;;;;-53
2019/07/25 04:35:07;;;;;;;7.45;6.29;;;;;;;23.17;58.01;100516.93;;;;-53
2019/07/25 04:38:07;;;;;;;7.39;6.31;;;;;;;23.17;58.12;100519.97;;;;-52
2019/07/25 04:41:07;;;;;;;6.89;6.19;;;;;;;23.16;58.15;100519.33;;;;-53
2019/07/25 04:44:07;;;;;;;7.21;6.51;;;;;;;23.15;58.13;100518.79;;;;-53
2019/07/25 04:47:07;;;;;;;7.09;6.28;;;;;;;23.17;58.28;100523.06;;;;-54
2019/07/25 04:50:07;;;;;;;7.01;6.41;;;;;;;23.17;58.15;100529.70;;;;-55
2019/07/25 04:53:07;;;;;;;7.46;6.25;;;;;;;23.15;58.48;100535.80;;;;-55
2019/07/25 04:56:07;;;;;;;7.79;6.47;;;;;;;23.17;58.35;100539.48;;;;-54
2019/07/25 04:59:07;;;;;;;7.30;6.55;;;;;;;23.17;58.49;100538.39;;;;-56
2019/07/25 05:02:07;;;;;;;8.98;6.21;;;;;;;23.18;58.26;100538.49;;;;-56
2019/07/25 05:05:07;;;;;;;6.84;6.14;;;;;;;23.19;58.08;100541.66;;;;-55
2019/07/25 05:08:07;;;;;;;8.47;6.19;;;;;;;23.20;58.05;100542.20;;;;-56
2019/07/25 05:11:07;;;;;;;8.15;6.20;;;;;;;23.21;57.96;100540.20;;;;-56
2019/07/25 05:14:07;;;;;;;7.96;6.45;;;;;;;23.21;57.93;100543.64;;;;-55
2019/07/25 05:17:07;;;;;;;6.84;5.89;;;;;;;23.21;57.87;100544.66;;;;-56
2019/07/25 05:20:07;;;;;;;7.27;6.21;;;;;;;23.21;57.83;100548.63;;;;-56
2019/07/25 05:23:07;;;;;;;7.86;5.91;;;;;;;23.22;57.76;100546.13;;;;-56
2019/07/25 05:26:07;;;;;;;6.21;5.71;;;;;;;23.22;57.72;100549.56;;;;-56
2019/07/25 05:29:07;;;;;;;7.53;6.21;;;;;;;23.22;57.72;100546.20;;;;-56
2019/07/25 05:32:07;;;;;;;8.21;6.33;;;;;;;23.22;57.67;100546.30;;;;-55
2019/07/25 05:35:07;;;;;;;6.97;6.27;;;;;;;23.22;57.66;100548.49;;;;-56
2019/07/25 05:38:07;;;;;;;6.68;6.00;;;;;;;23.22;57.62;100547.55;;;;-56
2019/07/25 05:41:07;;;;;;;6.69;6.03;;;;;;;23.22;57.58;100545.36;;;;-55
2019/07/25 05:44:07;;;;;;;6.64;5.91;;;;;;;23.22;57.61;100542.16;;;;-55
2019/07/25 05:47:07;;;;;;;6.92;5.76;;;;;;;23.22;57.59;100544.78;;;;-55
2019/07/25 05:50:07;;;;;;;6.41;5.81;;;;;;;23.22;57.58;100544.95;;;;-55
2019/07/25 05:53:07;;;;;;;6.46;5.90;;;;;;;23.22;57.53;100550.75;;;;-55
2019/07/25 05:56:07;;;;;;;6.02;5.48;;;;;;;23.21;57.54;100551.16;;;;-56
2019/07/25 05:59:07;;;;;;;6.01;5.51;;;;;;;23.22;57.51;100553.78;;;;-56
2019/07/25 06:02:07;;;;;;;5.66;5.17;;;;;;;23.22;57.49;100549.23;;;;-56
2019/07/25 06:05:07;;;;;;;7.07;6.03;;;;;;;23.21;57.48;100552.33;;;;-55
2019/07/25 06:08:07;;;;;;;6.12;5.56;;;;;;;23.22;57.48;100556.58;;;;-56
2019/07/25 06:11:07;;;;;;;5.98;5.38;;;;;;;23.22;57.46;100557.32;;;;-56
2019/07/25 06:14:07;;;;;;;5.90;5.40;;;;;;;23.22;57.46;100560.52;;;;-56
2019/07/25 06:17:07;;;;;;;5.85;5.27;;;;;;;23.22;57.46;100559.84;;;;-55
2019/07/25 06:20:07;;;;;;;6.15;5.59;;;;;;;23.22;57.45;100555.91;;;;-56
2019/07/25 06:23:07;;;;;;;6.24;5.65;;;;;;;23.22;57.44;100553.45;;;;-56
2019/07/25 06:26:07;;;;;;;5.80;5.30;;;;;;;23.22;57.45;100554.12;;;;-56
2019/07/25 06:29:07;;;;;;;6.02;5.45;;;;;;;23.22;57.39;100555.73;;;;-56
2019/07/25 06:32:07;;;;;;;5.70;5.15;;;;;;;23.22;57.42;100555.80;;;;-56
2019/07/25 06:35:07;;;;;;;5.87;5.30;;;;;;;23.22;57.43;100556.65;;;;-56
2019/07/25 06:38:07;;;;;;;6.03;5.53;;;;;;;23.21;57.40;100559.41;;;;-54
2019/07/25 06:41:07;;;;;;;6.31;5.29;;;;;;;23.22;57.40;100559.52;;;;-55
2019/07/25 06:44:07;;;;;;;5.81;5.27;;;;;;;23.22;57.40;100559.95;;;;-56
2019/07/25 06:47:07;;;;;;;5.89;5.39;;;;;;;23.22;57.39;100558.94;;;;-57
2019/07/25 06:50:07;;;;;;;6.01;5.51;;;;;;;23.21;57.37;100555.37;;;;-56
2019/07/25 06:53:07;;;;;;;5.84;5.26;;;;;;;23.22;57.39;100555.91;;;;-51
2019/07/25 06:56:07;;;;;;;5.84;5.31;;;;;;;23.22;57.40;100560.02;;;;-50
2019/07/25 06:59:07;;;;;;;5.90;5.35;;;;;;;23.22;57.41;100555.47;;;;-50
2019/07/25 07:02:07;;;;;;;7.35;5.61;;;;;;;23.23;57.98;100554.16;;;;-50
2019/07/25 07:05:07;;;;;;;10.25;5.54;;;;;;;23.21;57.97;100549.70;;;;-48
2019/07/25 07:08:07;;;;;;;10.20;5.38;;;;;;;23.24;58.15;100547.27;;;;-52
2019/07/25 07:11:07;;;;;;;10.75;5.38;;;;;;;23.25;58.08;100547.64;;;;-52
2019/07/25 07:14:07;;;;;;;8.46;5.15;;;;;;;23.27;58.10;100548.11;;;;-56
2019/07/25 07:17:07;;;;;;;9.07;5.37;;;;;;;23.28;58.15;100546.22;;;;-53
2019/07/25 07:20:07;;;;;;;6.63;5.13;;;;;;;23.29;57.90;100548.20;;;;-53
2019/07/25 07:23:07;;;;;;;8.07;5.35;;;;;;;23.28;58.27;100545.91;;;;-51
2019/07/25 07:26:07;;;;;;;9.61;5.29;;;;;;;23.31;58.41;100547.72;;;;-52
2019/07/25 07:29:07;;;;;;;7.64;5.43;;;;;;;23.32;58.33;100549.03;;;;-52
2019/07/25 07:32:08;;;;;;;8.74;5.35;;;;;;;23.32;58.36;100544.92;;;;-48
2019/07/25 07:35:07;;;;;;;7.77;5.25;;;;;;;23.35;58.33;100547.00;;;;-50
2019/07/25 07:38:07;;;;;;;5.71;5.16;;;;;;;23.36;58.48;100550.50;;;;-51
2019/07/25 07:41:07;;;;;;;5.86;5.02;;;;;;;23.37;58.56;100542.20;;;;-51
2019/07/25 07:44:07;;;;;;;7.37;5.03;;;;;;;23.38;58.67;100540.85;;;;-51
2019/07/25 07:47:07;;;;;;;7.31;5.31;;;;;;;23.40;58.63;100541.08;;;;-52
2019/07/25 07:50:07;;;;;;;6.15;4.86;;;;;;;23.41;58.57;100543.00;;;;-51
2019/07/25 07:53:07;;;;;;;8.04;4.99;;;;;;;23.42;58.64;100539.89;;;;-52
2019/07/25 07:56:07;;;;;;;8.59;5.04;;;;;;;23.44;58.60;100536.48;;;;-52
2019/07/25 07:59:07;;;;;;;7.25;5.09;;;;;;;23.45;58.39;100531.79;;;;-53
2019/07/25 08:02:07;;;;;;;7.61;5.01;;;;;;;23.46;58.55;100533.27;;;;-50
2019/07/25 08:05:07;;;;;;;9.02;4.93;;;;;;;23.46;58.37;100534.95;;;;-50
2019/07/25 08:08:07;;;;;;;6.63;4.93;;;;;;;23.46;58.35;100535.19;;;;-51
2019/07/25 08:11:07;;;;;;;11.21;5.00;;;;;;;23.47;58.49;100526.89;;;;-52
2019/07/25 08:14:07;;;;;;;10.41;5.08;;;;;;;23.47;58.39;100526.45;;;;-51
2019/07/25 08:17:07;;;;;;;7.84;5.12;;;;;;;23.47;58.42;100524.77;;;;-52
2019/07/25 08:20:07;;;;;;;6.40;4.74;;;;;;;23.48;58.35;100523.78;;;;-51
2019/07/25 08:23:07;;;;;;;6.74;4.95;;;;;;;23.48;58.34;100514.68;;;;-49
2019/07/25 08:26:07;;;;;;;7.81;4.83;;;;;;;23.49;58.32;100512.52;;;;-49
2019/07/25 08:29:07;;;;;;;8.00;4.98;;;;;;;23.49;58.35;100509.31;;;;-52
2019/07/25 08:32:07;;;;;;;6.13;4.74;;;;;;;23.50;58.33;100508.34;;;;-51
2019/07/25 08:35:07;;;;;;;7.81;4.63;;;;;;;23.51;58.35;100503.74;;;;-53
2019/07/25 08:38:07;;;;;;;8.59;4.93;;;;;;;23.52;58.29;100505.36;;;;-54
2019/07/25 08:41:07;;;;;;;7.23;4.75;;;;;;;23.53;58.33;100501.75;;;;-51
2019/07/25 08:44:07;;;;;;;9.65;4.89;;;;;;;23.52;58.31;100499.29;;;;-54
2019/07/25 08:47:07;;;;;;;8.43;4.61;;;;;;;23.55;58.27;100495.56;;;;-52
2019/07/25 08:50:07;;;;;;;8.47;4.71;;;;;;;23.55;58.30;100493.81;;;;-51
2019/07/25 08:53:07;;;;;;;5.49;4.61;;;;;;;23.55;58.20;100485.45;;;;-52
2019/07/25 08:56:07;;;;;;;5.72;4.60;;;;;;;23.56;58.25;100483.39;;;;-56
2019/07/25 08:59:07;;;;;;;5.73;4.47;;;;;;;23.56;58.26;100479.78;;;;-51
2019/07/25 09:02:07;;;;;;;7.27;4.47;;;;;;;23.58;58.25;100480.75;;;;-55
2019/07/25 09:05:07;;;;;;;5.23;4.36;;;;;;;23.59;58.17;100481.01;;;;-57
2019/07/25 09:08:07;;;;;;;6.54;4.60;;;;;;;23.60;58.22;100477.67;;;;-52
2019/07/25 09:11:07;;;;;;;5.46;4.63;;;;;;;23.61;58.14;100476.01;;;;-58
2019/07/25 09:14:07;;;;;;;4.99;4.53;;;;;;;23.60;58.20;100473.72;;;;-58
2019/07/25 09:17:07;;;;;;;7.31;4.64;;;;;;;23.62;58.16;100470.57;;;;-55
2019/07/25 09:20:07;;;;;;;6.55;4.59;;;;;;;23.63;58.18;100470.19;;;;-55
2019/07/25 09:23:07;;;;;;;5.36;4.50;;;;;;;23.63;58.14;100465.54;;;;-52
2019/07/25 09:26:07;;;;;;;5.52;4.43;;;;;;;23.64;58.07;100465.40;;;;-51
2019/07/25 09:29:07;;;;;;;7.71;4.40;;;;;;;23.65;58.21;100462.70;;;;-50
2019/07/25 09:32:07;;;;;;;5.54;4.45;;;;;;;23.65;58.14;100463.34;;;;-52
2019/07/25 09:35:07;;;;;;;7.65;4.60;;;;;;;23.65;58.15;100460.00;;;;-54
2019/07/25 09:38:07;;;;;;;7.79;4.51;;;;;;;23.64;58.03;100459.73;;;;-55
2019/07/25 09:41:07;;;;;;;8.87;5.11;;;;;;;23.62;58.14;100452.16;;;;-51
2019/07/25 09:44:07;;;;;;;8.13;5.09;;;;;;;23.63;58.11;100449.69;;;;-53
2019/07/25 09:47:07;;;;;;;5.25;4.75;;;;;;;23.64;58.19;100444.90;;;;-52
2019/07/25 09:50:07;;;;;;;6.13;4.87;;;;;;;23.65;58.18;100439.43;;;;-53
2019/07/25 09:53:07;;;;;;;5.85;5.01;;;;;;;23.65;58.04;100434.67;;;;-52
2019/07/25 09:56:07;;;;;;;6.05;4.73;;;;;;;23.66;58.03;100433.39;;;;-52
2019/07/25 09:59:07;;;;;;;7.69;4.88;;;;;;;23.66;58.05;100431.13;;;;-51
2019/07/25 10:02:07;;;;;;;6.40;4.48;;;;;;;23.67;58.02;100434.59;;;;-54
2019/07/25 10:05:07;;;;;;;8.52;4.53;;;;;;;23.68;57.97;100429.23;;;;-51
2019/07/25 10:08:07;;;;;;;6.32;4.80;;;;;;;23.66;57.99;100429.20;;;;-52
2019/07/25 10:11:07;;;;;;;7.55;5.29;;;;;;;23.65;58.25;100428.27;;;;-59
2019/07/25 10:14:07;;;;;;;7.82;5.09;;;;;;;23.65;58.28;100431.80;;;;-59
2019/07/25 10:17:07;;;;;;;12.66;5.43;;;;;;;23.67;58.38;100427.34;;;;-54
2019/07/25 10:20:07;;;;;;;8.29;5.35;;;;;;;23.68;58.37;100427.64;;;;-57
2019/07/25 10:23:07;;;;;;;7.45;4.93;;;;;;;23.69;58.24;100428.58;;;;-58
2019/07/25 10:26:07;;;;;;;10.79;5.00;;;;;;;23.70;58.54;100431.06;;;;-52
2019/07/25 10:29:07;;;;;;;8.75;5.13;;;;;;;23.71;58.36;100432.00;;;;-51
2019/07/25 10:32:07;;;;;;;8.51;4.88;;;;;;;23.73;58.41;100429.36;;;;-54
2019/07/25 10:35:07;;;;;;;9.85;5.11;;;;;;;23.74;58.45;100426.18;;;;-55
2019/07/25 10:38:07;;;;;;;10.19;5.12;;;;;;;23.77;58.85;100419.85;;;;-60
2019/07/25 10:41:07;;;;;;;9.77;4.84;;;;;;;23.76;58.25;100417.06;;;;-58
2019/07/25 10:44:07;;;;;;;6.10;4.70;;;;;;;23.75;58.16;100414.06;;;;-59
2019/07/25 10:47:07;;;;;;;9.17;5.00;;;;;;;23.74;58.08;100409.31;;;;-60
2019/07/25 10:50:07;;;;;;;7.88;5.03;;;;;;;23.74;58.04;100408.06;;;;-60
2019/07/25 10:53:07;;;;;;;7.28;5.12;;;;;;;23.73;58.04;100407.94;;;;-60
2019/07/25 10:56:07;;;;;;;5.45;4.66;;;;;;;23.72;57.95;100400.33;;;;-59
2019/07/25 10:59:07;;;;;;;9.12;4.81;;;;;;;23.71;57.91;100394.00;;;;-59
2019/07/25 11:02:07;;;;;;;6.29;4.71;;;;;;;23.70;57.86;100393.97;;;;-59
2019/07/25 11:05:07;;;;;;;6.57;4.83;;;;;;;23.69;57.78;100390.56;;;;-59
2019/07/25 11:08:07;;;;;;;8.05;4.85;;;;;;;23.68;57.71;100386.26;;;;-60
2019/07/25 11:11:07;;;;;;;8.02;4.83;;;;;;;23.68;57.69;100384.88;;;;-60
2019/07/25 11:14:07;;;;;;;5.57;4.69;;;;;;;23.67;57.66;100382.33;;;;-59
2019/07/25 11:17:07;;;;;;;6.72;4.93;;;;;;;23.66;57.69;100381.66;;;;-60
2019/07/25 11:20:07;;;;;;;8.41;4.95;;;;;;;23.66;57.61;100383.75;;;;-60
2019/07/25 11:23:07;;;;;;;7.62;4.92;;;;;;;23.65;57.57;100383.75;;;;-60
2019/07/25 11:26:07;;;;;;;5.84;4.50;;;;;;;23.65;57.59;100380.92;;;;-60
2019/07/25 11:29:07;;;;;;;6.18;4.77;;;;;;;23.64;57.57;100381.27;;;;-59
2019/07/25 11:32:07;;;;;;;6.07;4.51;;;;;;;23.63;57.56;100373.25;;;;-59
2019/07/25 11:35:07;;;;;;;6.11;4.58;;;;;;;23.64;57.54;100376.84;;;;-59
2019/07/25 11:38:07;;;;;;;8.41;4.59;;;;;;;23.63;57.55;100378.51;;;;-60
2019/07/25 11:41:07;;;;;;;6.43;4.79;;;;;;;23.62;57.55;100373.89;;;;-60
2019/07/25 11:44:07;;;;;;;6.04;4.49;;;;;;;23.62;57.48;100372.52;;;;-59
2019/07/25 11:47:07;;;;;;;5.65;4.60;;;;;;;23.61;57.48;100368.98;;;;-58
2019/07/25 11:50:07;;;;;;;6.63;4.62;;;;;;;23.62;57.47;100363.91;;;;-58
2019/07/25 11:53:07;;;;;;;8.91;4.90;;;;;;;23.61;57.94;100360.52;;;;-60
2019/07/25 11:56:07;;;;;;;6.95;4.78;;;;;;;23.62;58.14;100352.31;;;;-62
2019/07/25 11:59:07;;;;;;;11.11;4.52;;;;;;;23.64;58.05;100354.02;;;;-61
2019/07/25 12:02:07;;;;;;;10.90;4.71;;;;;;;23.63;57.86;100343.06;;;;-61
2019/07/25 12:05:07;;;;;;;9.47;4.64;;;;;;;23.63;58.03;100337.14;;;;-59
2019/07/25 12:08:07;;;;;;;5.29;4.23;;;;;;;23.64;58.20;100339.05;;;;-61
2019/07/25 12:11:07;;;;;;;6.08;4.62;;;;;;;23.64;58.18;100333.55;;;;-62
2019/07/25 12:14:07;;;;;;;7.79;4.37;;;;;;;23.65;58.28;100331.81;;;;-61
2019/07/25 12:17:07;;;;;;;5.89;4.50;;;;;;;23.65;58.36;100331.79;;;;-60
2019/07/25 12:20:07;;;;;;;6.63;4.60;;;;;;;23.66;58.36;100320.17;;;;-64
2019/07/25 12:23:07;;;;;;;11.27;4.61;;;;;;;23.69;58.39;100325.25;;;;-62
2019/07/25 12:26:07;;;;;;;10.49;4.85;;;;;;;23.70;58.47;100317.17;;;;-58
2019/07/25 12:29:07;;;;;;;11.11;4.68;;;;;;;23.74;58.62;100318.02;;;;-59
2019/07/25 12:32:07;;;;;;;13.12;4.95;;;;;;;23.75;58.45;100316.09;;;;-61
2019/07/25 12:35:06;;;;;;;10.34;4.53;;;;;;;23.75;58.60;100310.52;;;;-59
2019/07/25 12:38:07;;;;;;;8.09;4.36;;;;;;;23.77;58.55;100308.89;;;;-59
2019/07/25 12:41:07;;;;;;;8.99;4.41;;;;;;;23.77;58.33;100311.41;;;;-58
2019/07/25 12:44:07;;;;;;;8.73;4.51;;;;;;;23.77;58.43;100300.97;;;;-59
2019/07/25 12:47:07;;;;;;;8.89;4.51;;;;;;;23.76;58.37;100301.78;;;;-58
2019/07/25 12:50:07;;;;;;;6.27;4.49;;;;;;;23.76;58.54;100302.11;;;;-60
2019/07/25 12:53:07;;;;;;;12.47;4.93;;;;;;;23.77;58.63;100298.43;;;;-49
2019/07/25 12:56:07;;;;;;;12.65;4.72;;;;;;;23.77;58.68;100295.91;;;;-51
2019/07/25 12:59:07;;;;;;;8.71;4.44;;;;;;;23.77;58.65;100292.30;;;;-51
2019/07/25 13:02:07;;;;;;;9.10;4.26;;;;;;;23.79;58.49;100288.56;;;;-52
2019/07/25 13:05:07;;;;;;;7.82;4.53;;;;;;;23.78;58.50;100283.91;;;;-52
2019/07/25 13:08:07;;;;;;;12.88;4.61;;;;;;;23.79;59.05;100276.42;;;;-50
2019/07/25 13:11:07;;;;;;;9.85;4.67;;;;;;;23.81;58.89;100273.88;;;;-50
2019/07/25 13:14:07;;;;;;;11.21;4.40;;;;;;;23.81;58.88;100278.26;;;;-50
2019/07/25 13:17:07;;;;;;;7.39;4.35;;;;;;;23.81;59.03;100274.20;;;;-51
2019/07/25 13:20:07;;;;;;;9.01;4.48;;;;;;;23.81;58.92;100268.98;;;;-50
2019/07/25 13:23:06;;;;;;;7.15;4.35;;;;;;;23.81;58.91;100261.39;;;;-49
2019/07/25 13:26:07;;;;;;;8.34;4.24;;;;;;;23.82;58.96;100258.95;;;;-52
2019/07/25 13:29:07;;;;;;;11.73;4.41;;;;;;;23.82;58.91;100249.17;;;;-49
2019/07/25 13:32:07;;;;;;;10.41;4.38;;;;;;;23.82;58.74;100256.86;;;;-51
2019/07/25 13:35:07;;;;;;;7.62;4.17;;;;;;;23.83;58.89;100249.70;;;;-51
2019/07/25 13:38:08;;;;;;;9.64;4.41;;;;;;;23.82;58.77;100244.21;;;;-48
2019/07/25 13:41:07;;;;;;;7.47;4.41;;;;;;;23.84;58.76;100239.95;;;;-51
2019/07/25 13:44:07;;;;;;;5.90;4.09;;;;;;;23.83;58.74;100236.98;;;;-52
2019/07/25 13:47:07;;;;;;;6.79;4.14;;;;;;;23.84;58.74;100240.63;;;;-52
2019/07/25 13:50:07;;;;;;;8.86;4.20;;;;;;;23.86;58.68;100242.52;;;;-54
2019/07/25 13:53:06;;;;;;;9.15;4.08;;;;;;;23.86;58.45;100234.42;;;;-58
2019/07/25 13:56:07;;;;;;;6.45;4.01;;;;;;;23.86;58.46;100227.07;;;;-59
2019/07/25 13:59:07;;;;;;;7.05;4.02;;;;;;;23.86;58.37;100226.84;;;;-60
2019/07/25 14:02:07;;;;;;;5.94;3.97;;;;;;;23.86;58.37;100229.43;;;;-59
2019/07/25 14:05:07;;;;;;;6.72;4.33;;;;;;;23.86;58.32;100227.84;;;;-58
2019/07/25 14:08:07;;;;;;;9.98;4.35;;;;;;;23.86;58.44;100228.08;;;;-55
2019/07/25 14:11:07;;;;;;;10.41;4.17;;;;;;;23.86;58.62;100225.22;;;;-54
2019/07/25 14:14:07;;;;;;;9.02;4.25;;;;;;;23.87;58.77;100224.23;;;;-55
2019/07/25 14:17:07;;;;;;;9.55;4.10;;;;;;;23.89;58.87;100221.00;;;;-53
2019/07/25 14:20:07;;;;;;;10.81;4.16;;;;;;;23.89;58.78;100217.31;;;;-59
2019/07/25 14:23:07;;;;;;;10.10;4.11;;;;;;;23.90;58.77;100216.73;;;;-54
2019/07/25 14:26:07;;;;;;;12.23;4.47;;;;;;;23.90;58.73;100209.48;;;;-57
2019/07/25 14:29:07;;;;;;;12.11;4.12;;;;;;;23.91;58.68;100204.95;;;;-57
2019/07/25 14:32:07;;;;;;;6.63;4.25;;;;;;;23.92;58.71;100204.27;;;;-61
2019/07/25 14:35:06;;;;;;;7.98;4.05;;;;;;;23.91;58.78;100198.84;;;;-57
2019/07/25 14:38:07;;;;;;;8.31;3.93;;;;;;;23.91;59.03;100199.45;;;;-59
2019/07/25 14:41:07;;;;;;;7.57;4.04;;;;;;;23.90;59.44;100193.69;;;;-61
2019/07/25 14:44:07;;;;;;;10.33;4.18;;;;;;;23.91;59.35;100196.52;;;;-58
2019/07/25 14:47:07;;;;;;;8.71;3.81;;;;;;;23.91;59.42;100197.09;;;;-52
2019/07/25 14:50:07;;;;;;;6.33;3.73;;;;;;;23.91;59.37;100193.31;;;;-52
2019/07/25 14:53:07;;;;;;;9.45;4.10;;;;;;;23.91;59.26;100182.59;;;;-52
2019/07/25 14:56:07;;;;;;;10.34;4.07;;;;;;;23.92;59.27;100187.84;;;;-52
2019/07/25 14:59:07;;;;;;;7.32;4.01;;;;;;;23.92;59.24;100183.28;;;;-53
2019/07/25 15:02:07;;;;;;;6.94;3.88;;;;;;;23.92;59.31;100183.19;;;;-53
2019/07/25 15:05:07;;;;;;;5.72;3.88;;;;;;;23.92;59.40;100181.02;;;;-57
2019/07/25 15:08:07;;;;;;;5.24;3.70;;;;;;;23.91;59.12;100176.17;;;;-54
2019/07/25 15:11:07;;;;;;;9.63;4.06;;;;;;;23.91;59.24;100167.67;;;;-53
2019/07/25 15:14:07;;;;;;;5.39;3.77;;;;;;;23.90;59.24;100159.05;;;;-54
2019/07/25 15:17:06;;;;;;;5.37;3.93;;;;;;;23.90;59.20;100162.66;;;;-52
2019/07/25 15:20:07;;;;;;;6.30;3.91;;;;;;;23.92;59.22;100160.00;;;;-54
2019/07/25 15:23:07;;;;;;;5.29;3.43;;;;;;;23.92;59.13;100150.39;;;;-54
2019/07/25 15:26:07;;;;;;;5.81;4.03;;;;;;;23.94;58.98;100156.16;;;;-52
2019/07/25 15:29:07;;;;;;;4.89;3.63;;;;;;;23.94;58.98;100157.11;;;;-54
2019/07/25 15:32:07;;;;;;;5.27;3.78;;;;;;;23.94;58.97;100150.94;;;;-53
2019/07/25 15:35:07;;;;;;;9.20;3.91;;;;;;;23.95;59.13;100148.60;;;;-51
2019/07/25 15:38:07;;;;;;;9.96;3.87;;;;;;;23.95;59.40;100142.12;;;;-57
2019/07/25 15:41:07;;;;;;;6.94;3.83;;;;;;;23.96;59.17;100144.64;;;;-53
2019/07/25 15:44:07;;;;;;;9.45;3.93;;;;;;;23.95;59.31;100140.58;;;;-52
2019/07/25 15:47:07;;;;;;;7.84;3.62;;;;;;;23.95;59.26;100141.75;;;;-52
2019/07/25 15:50:07;;;;;;;9.16;3.77;;;;;;;23.96;59.35;100141.37;;;;-52
2019/07/25 15:53:07;;;;;;;5.30;3.86;;;;;;;23.96;59.39;100140.19;;;;-52
2019/07/25 15:56:07;;;;;;;5.04;3.74;;;;;;;23.96;59.36;100143.66;;;;-54
2019/07/25 15:59:06;;;;;;;9.74;3.65;;;;;;;23.97;59.44;100135.65;;;;-53
2019/07/25 16:02:06;;;;;;;4.05;3.49;;;;;;;23.97;59.36;100131.77;;;;-52
2019/07/25 16:05:07;;;;;;;5.21;3.69;;;;;;;23.97;59.32;100132.52;;;;-51
2019/07/25 16:08:07;;;;;;;4.60;3.71;;;;;;;23.99;59.44;100131.05;;;;-52
2019/07/25 16:11:07;;;;;;;6.75;3.55;;;;;;;23.98;59.26;100128.15;;;;-51
2019/07/25 16:14:07;;;;;;;4.15;3.56;;;;;;;23.99;59.23;100127.27;;;;-52
2019/07/25 16:17:07;;;;;;;5.38;3.46;;;;;;;24.00;59.27;100127.61;;;;-53
2019/07/25 16:20:06;;;;;;;4.80;3.49;;;;;;;24.01;59.26;100122.98;;;;-51
2019/07/25 16:23:07;;;;;;;4.79;3.63;;;;;;;24.00;59.25;100121.55;;;;-52
2019/07/25 16:26:07;;;;;;;5.09;3.43;;;;;;;24.00;59.42;100125.25;;;;-56
2019/07/25 16:29:07;;;;;;;7.50;3.51;;;;;;;23.99;59.31;100125.64;;;;-53
2019/07/25 16:32:07;;;;;;;3.98;3.43;;;;;;;23.99;59.14;100124.47;;;;-51
2019/07/25 16:35:07;;;;;;;5.94;3.88;;;;;;;23.99;59.42;100122.60;;;;-52
2019/07/25 16:38:07;;;;;;;4.15;3.47;;;;;;;23.99;59.39;100122.44;;;;-52
2019/07/25 16:41:06;;;;;;;4.65;3.51;;;;;;;23.99;59.44;100118.48;;;;-59